createdAt,value
2018-02-10T00:02:14.883Z,1.70
2018-02-10T00:04:43.139Z,1.70
2018-02-10T00:07:11.407Z,1.60
2018-02-10T00:09:39.690Z,1.60
2018-02-10T00:12:08.012Z,1.50
2018-02-10T00:14:37.820Z,1.40
2018-02-10T00:17:06.159Z,1.40
2018-02-10T00:19:34.423Z,1.50
2018-02-10T00:22:02.691Z,1.50
2018-02-10T00:24:31.856Z,1.40
2018-02-10T00:27:00.134Z,1.40
2018-02-10T00:29:29.179Z,1.50
2018-02-10T00:31:57.460Z,1.40
2018-02-10T00:34:25.831Z,1.50
2018-02-10T00:36:54.090Z,1.50
2018-02-10T00:39:22.414Z,1.50
2018-02-10T00:41:50.671Z,1.50
2018-02-10T00:44:18.947Z,1.50
2018-02-10T00:46:47.193Z,1.50
2018-02-10T00:49:15.460Z,1.50
2018-02-10T00:51:43.734Z,1.50
2018-02-10T00:54:12.035Z,1.50
2018-02-10T00:56:40.296Z,1.40
2018-02-10T00:59:08.563Z,1.40
2018-02-10T01:01:36.823Z,1.40
2018-02-10T01:04:05.114Z,1.40
2018-02-10T01:06:33.370Z,1.40
2018-02-10T01:09:01.635Z,1.40
2018-02-10T01:11:29.950Z,1.40
2018-02-10T01:13:58.255Z,1.40
2018-02-10T01:16:26.527Z,1.40
2018-02-10T01:18:54.814Z,1.40
2018-02-10T01:21:23.119Z,1.40
2018-02-10T01:23:52.248Z,1.40
2018-02-10T01:26:20.514Z,1.40
2018-02-10T01:28:48.807Z,1.40
2018-02-10T01:31:17.070Z,1.40
2018-02-10T01:33:45.342Z,1.50
2018-02-10T01:36:13.602Z,1.50
2018-02-10T01:38:41.898Z,1.50
2018-02-10T01:41:10.166Z,1.50
2018-02-10T01:43:38.433Z,1.50
2018-02-10T01:46:06.691Z,1.50
2018-02-10T01:48:35.006Z,1.50
2018-02-10T01:51:03.332Z,1.50
2018-02-10T01:53:32.508Z,1.50
2018-02-10T01:56:01.550Z,1.50
2018-02-10T01:58:29.936Z,1.50
2018-02-10T02:00:58.205Z,1.60
2018-02-10T02:03:26.471Z,1.60
2018-02-10T02:05:54.758Z,1.60
2018-02-10T02:08:23.034Z,1.70
2018-02-10T02:10:51.309Z,1.60
2018-02-10T02:13:19.689Z,1.70
2018-02-10T02:15:47.970Z,1.70
2018-02-10T02:18:16.236Z,1.70
2018-02-10T02:20:44.520Z,1.70
2018-02-10T02:23:12.849Z,1.70
2018-02-10T02:25:41.074Z,1.70
2018-02-10T02:28:09.446Z,1.80
2018-02-10T02:30:37.696Z,1.80
2018-02-10T02:33:05.940Z,1.80
2018-02-10T02:35:34.213Z,1.80
2018-02-10T02:38:02.637Z,1.80
2018-02-10T02:40:30.891Z,1.80
2018-02-10T02:42:59.150Z,1.80
2018-02-10T02:45:28.178Z,1.90
2018-02-10T02:47:56.443Z,1.80
2018-02-10T02:50:24.711Z,1.90
2018-02-10T02:52:52.996Z,1.90
2018-02-10T02:55:21.375Z,1.90
2018-02-10T02:57:49.631Z,1.90
2018-02-10T03:00:17.989Z,1.90
2018-02-10T03:02:46.232Z,1.90
2018-02-10T03:05:14.506Z,1.90
2018-02-10T03:07:42.809Z,2.00
2018-02-10T03:10:11.051Z,2.00
2018-02-10T03:12:39.359Z,2.00
2018-02-10T03:15:07.640Z,2.00
2018-02-10T03:17:36.043Z,2.00
2018-02-10T03:20:04.306Z,2.10
2018-02-10T03:22:33.383Z,2.20
2018-02-10T03:25:01.958Z,2.10
2018-02-10T03:27:30.254Z,2.20
2018-02-10T03:29:58.623Z,2.20
2018-02-10T03:32:27.715Z,2.20
2018-02-10T03:34:55.991Z,2.20
2018-02-10T03:37:25.236Z,2.20
2018-02-10T03:39:53.486Z,2.20
2018-02-10T03:42:21.754Z,2.20
2018-02-10T03:44:50.770Z,2.20
2018-02-10T03:47:19.038Z,2.20
2018-02-10T03:49:47.348Z,2.20
2018-02-10T03:52:15.619Z,2.20
2018-02-10T03:54:43.882Z,2.20
2018-02-10T03:57:12.156Z,2.20
2018-02-10T03:59:40.407Z,2.20
2018-02-10T04:02:08.749Z,2.20
2018-02-10T04:04:37.819Z,2.20
2018-02-10T04:07:06.075Z,2.20
2018-02-10T04:09:34.346Z,2.20
2018-02-10T04:12:02.647Z,2.30
2018-02-10T04:14:30.924Z,2.30
2018-02-10T04:16:59.183Z,2.30
2018-02-10T04:19:27.450Z,2.30
2018-02-10T04:21:55.712Z,2.30
2018-02-10T04:24:24.014Z,2.40
2018-02-10T04:26:52.354Z,2.30
2018-02-10T04:29:21.378Z,2.40
2018-02-10T04:31:49.631Z,2.30
2018-02-10T04:34:17.911Z,2.40
2018-02-10T04:36:46.179Z,2.40
2018-02-10T04:39:14.473Z,2.40
2018-02-10T04:41:42.739Z,2.40
2018-02-10T04:44:11.932Z,2.40
2018-02-10T04:46:40.200Z,2.30
2018-02-10T04:49:08.495Z,2.30
2018-02-10T04:51:36.773Z,2.40
2018-02-10T04:54:05.032Z,2.40
2018-02-10T04:56:33.308Z,2.40
2018-02-10T04:59:01.570Z,2.40
2018-02-10T05:01:29.831Z,2.40
2018-02-10T05:03:58.118Z,2.40
2018-02-10T05:06:26.402Z,2.40
2018-02-10T05:08:54.755Z,2.40
2018-02-10T05:11:23.882Z,2.30
2018-02-10T05:13:52.175Z,2.30
2018-02-10T05:16:20.449Z,2.40
2018-02-10T05:18:48.759Z,2.40
2018-02-10T05:21:17.038Z,2.40
2018-02-10T05:23:46.120Z,2.40
2018-02-10T05:26:15.164Z,2.40
2018-02-10T05:28:43.463Z,2.40
2018-02-10T05:31:11.747Z,2.40
2018-02-10T05:33:40.051Z,2.40
2018-02-10T05:36:09.087Z,2.40
2018-02-10T05:38:37.359Z,2.40
2018-02-10T05:41:05.631Z,2.40
2018-02-10T05:43:33.908Z,2.40
2018-02-10T05:46:02.180Z,2.40
2018-02-10T05:48:30.489Z,2.40
2018-02-10T05:50:58.739Z,2.40
2018-02-10T05:53:26.997Z,2.40
2018-02-10T05:55:55.298Z,2.40
2018-02-10T05:58:23.604Z,2.40
2018-02-10T06:00:51.985Z,2.40
2018-02-10T06:03:20.246Z,2.30
2018-02-10T06:05:48.511Z,2.30
2018-02-10T06:08:16.837Z,2.20
2018-02-10T06:10:45.929Z,2.20
2018-02-10T06:13:14.156Z,2.10
2018-02-10T06:15:42.460Z,2.20
2018-02-10T06:18:10.799Z,2.20
2018-02-10T06:20:39.120Z,2.20
2018-02-10T06:23:08.182Z,2.20
2018-02-10T06:25:36.433Z,2.20
2018-02-10T06:28:04.748Z,2.30
2018-02-10T06:30:33.018Z,2.30
2018-02-10T06:33:02.113Z,2.30
2018-02-10T06:35:30.372Z,2.30
2018-02-10T06:37:58.671Z,2.30
2018-02-10T06:40:27.719Z,2.40
2018-02-10T06:42:56.007Z,2.30
2018-02-10T06:45:24.351Z,2.30
2018-02-10T06:47:52.654Z,2.40
2018-02-10T06:50:21.021Z,2.40
2018-02-10T06:52:49.264Z,2.40
2018-02-10T06:55:17.530Z,2.40
2018-02-10T06:57:46.554Z,2.40
2018-02-10T07:00:14.846Z,2.30
2018-02-10T07:02:43.117Z,2.40
2018-02-10T07:05:11.562Z,2.40
2018-02-10T07:07:39.827Z,2.40
2018-02-10T07:10:09.792Z,2.30
2018-02-10T07:12:38.108Z,2.30
2018-02-10T07:15:07.146Z,2.30
2018-02-10T07:17:35.558Z,2.30
2018-02-10T07:20:04.395Z,2.30
2018-02-10T07:22:33.063Z,2.40
2018-02-10T07:25:01.874Z,2.30
2018-02-10T07:27:30.162Z,2.40
2018-02-10T07:29:59.053Z,2.40
2018-02-10T07:32:27.548Z,2.40
2018-02-10T07:34:55.850Z,2.30
2018-02-10T07:37:24.222Z,2.30
2018-02-10T07:39:52.491Z,2.30
2018-02-10T07:42:22.424Z,2.30
2018-02-10T07:44:51.443Z,2.30
2018-02-10T07:47:19.852Z,2.20
2018-02-10T07:49:48.124Z,2.30
2018-02-10T07:52:16.391Z,2.30
2018-02-10T07:54:44.972Z,2.30
2018-02-10T07:57:14.039Z,2.30
2018-02-10T07:59:43.060Z,2.40
2018-02-10T08:02:11.452Z,2.30
2018-02-10T08:04:39.829Z,2.40
2018-02-10T08:07:08.108Z,2.40
2018-02-10T08:09:36.532Z,2.40
2018-02-10T08:12:04.910Z,2.50
2018-02-10T08:14:33.239Z,2.50
2018-02-10T08:17:01.537Z,2.50
2018-02-10T08:19:29.766Z,2.50
2018-02-10T08:21:58.170Z,2.60
2018-02-10T08:24:26.524Z,2.60
2018-02-10T08:26:54.814Z,2.60
2018-02-10T18:55:03.613Z,2.00
2018-02-10T18:57:31.895Z,2.00
2018-02-10T19:00:00.335Z,2.00
2018-02-10T19:02:28.659Z,2.00
2018-02-10T19:04:57.725Z,2.00
2018-02-10T19:07:26.042Z,1.90
2018-02-10T19:09:54.321Z,2.00
2018-02-10T19:12:23.396Z,2.10
2018-02-10T19:14:51.680Z,2.00
2018-02-10T19:17:20.858Z,2.10
2018-02-10T19:19:49.153Z,2.10
2018-02-10T19:22:17.419Z,2.10
2018-02-10T19:24:45.651Z,2.20
2018-02-10T19:27:14.720Z,2.20
2018-02-10T19:29:43.010Z,2.10
2018-02-10T19:32:11.308Z,2.20
2018-02-10T19:34:39.580Z,2.20
2018-02-10T19:37:07.883Z,2.20
2018-02-10T19:39:36.144Z,2.20
2018-02-10T19:42:04.440Z,2.20
2018-02-10T19:44:33.527Z,2.20
2018-02-10T19:47:02.668Z,2.20
2018-02-10T19:49:31.000Z,2.10
2018-02-10T19:51:59.274Z,2.20
2018-02-10T19:54:27.548Z,2.10
2018-02-10T19:56:55.828Z,2.10
2018-02-10T19:59:24.165Z,2.20
2018-02-10T20:01:52.480Z,2.20
2018-02-10T20:04:20.756Z,2.20
2018-02-10T20:06:49.128Z,2.20
2018-02-10T20:09:17.392Z,2.20
2018-02-10T20:11:45.662Z,2.20
2018-02-10T20:14:14.000Z,2.20
2018-02-10T20:16:42.300Z,2.20
2018-02-10T20:19:10.609Z,2.20
2018-02-10T20:21:38.913Z,2.20
2018-02-10T20:24:07.905Z,2.20
2018-02-10T20:26:36.253Z,2.20
2018-02-10T20:29:04.519Z,2.20
2018-02-10T20:31:32.906Z,2.30
2018-02-10T20:34:01.182Z,2.30
2018-02-10T20:36:29.458Z,2.30
2018-02-10T20:38:57.734Z,2.30
2018-02-10T20:41:26.054Z,2.30
2018-02-10T20:43:54.309Z,2.30
2018-02-10T20:46:22.635Z,2.20
2018-02-10T20:48:50.913Z,2.20
2018-02-10T20:51:19.189Z,2.20
2018-02-10T20:53:48.277Z,2.10
2018-02-10T20:56:16.562Z,2.00
2018-02-10T20:58:44.856Z,2.00
2018-02-10T21:01:13.127Z,2.00
2018-02-10T21:03:41.519Z,2.00
2018-02-10T21:06:09.766Z,2.00
2018-02-10T21:08:38.067Z,2.00
2018-02-10T21:11:07.154Z,2.00
2018-02-10T21:13:35.447Z,1.90
2018-02-10T21:16:04.530Z,2.00
2018-02-10T21:18:33.603Z,2.00
2018-02-10T21:21:01.894Z,1.90
2018-02-10T21:23:30.171Z,2.00
2018-02-10T21:25:59.232Z,2.00
2018-02-10T21:28:27.515Z,2.00
2018-02-10T21:30:55.815Z,2.00
2018-02-10T21:33:24.088Z,2.00
2018-02-10T21:35:52.412Z,2.00
2018-02-10T21:38:20.700Z,2.00
2018-02-10T21:40:49.016Z,2.00
2018-02-10T21:43:17.273Z,2.00
2018-02-10T21:45:45.568Z,2.00
2018-02-10T21:48:13.908Z,2.10
2018-02-10T21:50:42.180Z,2.00
2018-02-10T21:53:10.556Z,2.00
2018-02-10T21:55:38.977Z,2.00
2018-02-10T21:58:08.045Z,2.00
2018-02-10T22:00:36.319Z,2.00
2018-02-10T22:03:04.597Z,2.00
2018-02-10T22:05:32.903Z,2.00
2018-02-10T22:08:01.186Z,2.00
2018-02-10T22:10:30.244Z,2.00
2018-02-10T22:12:58.625Z,2.00
2018-02-10T22:15:26.909Z,2.10
2018-02-10T22:17:55.708Z,2.10
2018-02-10T22:20:23.958Z,2.10
2018-02-10T22:22:52.255Z,2.10
2018-02-10T22:25:20.522Z,2.10
2018-02-10T22:27:48.809Z,2.10
2018-02-10T22:30:17.155Z,2.10
2018-02-10T22:32:45.438Z,2.10
2018-02-10T22:35:13.750Z,2.20
2018-02-10T22:37:42.806Z,2.20
2018-02-10T22:40:11.110Z,2.10
2018-02-10T22:42:39.950Z,2.20
2018-02-10T22:45:08.261Z,2.20
2018-02-10T22:47:37.455Z,2.20
2018-02-10T22:50:05.752Z,2.20
2018-02-10T22:52:34.008Z,2.20
2018-02-10T22:55:02.330Z,2.20
2018-02-10T22:57:30.590Z,2.20
2018-02-10T22:59:59.675Z,2.20
2018-02-10T23:02:28.043Z,2.20
2018-02-10T23:04:56.345Z,2.20
2018-02-10T23:07:24.799Z,2.20
2018-02-10T23:09:53.071Z,2.20
2018-02-10T23:12:21.335Z,2.20
2018-02-10T23:14:49.641Z,2.20
2018-02-10T23:17:18.668Z,2.20
2018-02-10T23:19:46.992Z,2.20
2018-02-10T23:22:15.240Z,2.20
2018-02-10T23:24:43.520Z,2.20
2018-02-10T23:27:11.825Z,2.30
2018-02-10T23:29:40.987Z,2.30
2018-02-10T23:32:09.229Z,2.30
2018-02-10T23:34:37.528Z,2.30
2018-02-10T23:37:05.798Z,2.30
2018-02-10T23:39:34.081Z,2.30
2018-02-10T23:42:02.365Z,2.40
2018-02-10T23:44:30.664Z,2.40
2018-02-10T23:46:58.926Z,2.40
2018-02-10T23:49:27.232Z,2.40
2018-02-10T23:51:55.674Z,2.40
2018-02-10T23:54:24.766Z,2.30
2018-02-10T23:56:53.051Z,2.30
2018-02-10T23:59:21.332Z,2.30
